sensor_id;sensor_type;location;lat;lon;timestamp;P1;durP1;ratioP1;P2;durP2;ratioP2
75499;SDS011;64076;51.466;7.260;2024-03-08T00:00:15;19.35;;;14.73;;
75499;SDS011;64076;51.466;7.260;2024-03-08T00:02:43;20.58;;;15.15;;
75499;SDS011;64076;51.466;7.260;2024-03-08T00:05:13;18.60;;;14.85;;
75499;SDS011;64076;51.466;7.260;2024-03-08T00:07:39;20.80;;;15.00;;
75499;SDS011;64076;51.466;7.260;2024-03-08T00:10:06;21.10;;;14.77;;
75499;SDS011;64076;51.466;7.260;2024-03-08T00:12:36;18.70;;;14.93;;
75499;SDS011;64076;51.466;7.260;2024-03-08T00:15:11;20.75;;;15.38;;
75499;SDS011;64076;51.466;7.260;2024-03-08T00:17:39;19.88;;;15.35;;
75499;SDS011;64076;51.466;7.260;2024-03-08T00:20:05;20.30;;;15.73;;
75499;SDS011;64076;51.466;7.260;2024-03-08T00:22:37;19.90;;;15.50;;
75499;SDS011;64076;51.466;7.260;2024-03-08T00:25:03;18.98;;;15.50;;
75499;SDS011;64076;51.466;7.260;2024-03-08T00:27:30;19.25;;;15.50;;
75499;SDS011;64076;51.466;7.260;2024-03-08T00:29:56;17.97;;;14.50;;
75499;SDS011;64076;51.466;7.260;2024-03-08T00:32:25;20.33;;;15.52;;
75499;SDS011;64076;51.466;7.260;2024-03-08T00:34:51;20.95;;;15.65;;
75499;SDS011;64076;51.466;7.260;2024-03-08T00:37:20;21.25;;;17.10;;
75499;SDS011;64076;51.466;7.260;2024-03-08T00:39:51;21.30;;;16.00;;
75499;SDS011;64076;51.466;7.260;2024-03-08T00:42:17;21.88;;;16.95;;
75499;SDS011;64076;51.466;7.260;2024-03-08T00:44:43;20.48;;;16.65;;
75499;SDS011;64076;51.466;7.260;2024-03-08T00:47:09;22.53;;;16.53;;
75499;SDS011;64076;51.466;7.260;2024-03-08T00:49:35;19.48;;;16.05;;
75499;SDS011;64076;51.466;7.260;2024-03-08T00:52:07;21.35;;;15.77;;
75499;SDS011;64076;51.466;7.260;2024-03-08T00:54:33;20.70;;;15.52;;
75499;SDS011;64076;51.466;7.260;2024-03-08T00:57:00;21.27;;;16.40;;
75499;SDS011;64076;51.466;7.260;2024-03-08T00:59:28;20.08;;;16.48;;
75499;SDS011;64076;51.466;7.260;2024-03-08T01:01:54;22.35;;;16.80;;
75499;SDS011;64076;51.466;7.260;2024-03-08T01:04:19;22.23;;;16.30;;
75499;SDS011;64076;51.466;7.260;2024-03-08T01:06:46;21.75;;;16.67;;
75499;SDS011;64076;51.466;7.260;2024-03-08T01:09:12;21.98;;;15.85;;
75499;SDS011;64076;51.466;7.260;2024-03-08T01:11:38;23.30;;;18.10;;
75499;SDS011;64076;51.466;7.260;2024-03-08T01:14:03;21.20;;;16.67;;
75499;SDS011;64076;51.466;7.260;2024-03-08T01:16:29;18.77;;;16.53;;
75499;SDS011;64076;51.466;7.260;2024-03-08T01:18:54;20.92;;;17.17;;
75499;SDS011;64076;51.466;7.260;2024-03-08T01:21:20;21.10;;;17.23;;
75499;SDS011;64076;51.466;7.260;2024-03-08T01:23:45;19.37;;;16.07;;
75499;SDS011;64076;51.466;7.260;2024-03-08T01:26:11;20.33;;;16.45;;
75499;SDS011;64076;51.466;7.260;2024-03-08T01:28:37;20.27;;;17.07;;
75499;SDS011;64076;51.466;7.260;2024-03-08T01:31:02;22.25;;;17.38;;
75499;SDS011;64076;51.466;7.260;2024-03-08T01:33:28;20.52;;;16.45;;
75499;SDS011;64076;51.466;7.260;2024-03-08T01:35:55;21.63;;;16.90;;
75499;SDS011;64076;51.466;7.260;2024-03-08T01:38:22;22.52;;;18.10;;
75499;SDS011;64076;51.466;7.260;2024-03-08T01:40:47;21.80;;;17.83;;
75499;SDS011;64076;51.466;7.260;2024-03-08T01:45:46;20.50;;;16.60;;
75499;SDS011;64076;51.466;7.260;2024-03-08T01:48:12;20.95;;;16.45;;
75499;SDS011;64076;51.466;7.260;2024-03-08T01:50:39;21.73;;;17.08;;
75499;SDS011;64076;51.466;7.260;2024-03-08T01:53:05;21.97;;;17.70;;
75499;SDS011;64076;51.466;7.260;2024-03-08T01:55:32;20.73;;;17.15;;
75499;SDS011;64076;51.466;7.260;2024-03-08T01:58:00;21.20;;;17.05;;
75499;SDS011;64076;51.466;7.260;2024-03-08T02:00:28;23.48;;;17.52;;
75499;SDS011;64076;51.466;7.260;2024-03-08T02:02:55;21.17;;;17.80;;
75499;SDS011;64076;51.466;7.260;2024-03-08T02:05:22;23.42;;;18.85;;
75499;SDS011;64076;51.466;7.260;2024-03-08T02:07:48;23.42;;;18.05;;
75499;SDS011;64076;51.466;7.260;2024-03-08T02:10:14;21.57;;;17.43;;
75499;SDS011;64076;51.466;7.260;2024-03-08T02:12:39;23.60;;;18.83;;
75499;SDS011;64076;51.466;7.260;2024-03-08T02:15:05;23.03;;;18.47;;
75499;SDS011;64076;51.466;7.260;2024-03-08T02:17:31;24.65;;;19.40;;
75499;SDS011;64076;51.466;7.260;2024-03-08T02:19:58;26.77;;;19.67;;
75499;SDS011;64076;51.466;7.260;2024-03-08T02:22:26;24.05;;;19.13;;
75499;SDS011;64076;51.466;7.260;2024-03-08T02:24:53;22.48;;;17.95;;
75499;SDS011;64076;51.466;7.260;2024-03-08T02:27:23;24.40;;;19.50;;
75499;SDS011;64076;51.466;7.260;2024-03-08T02:29:56;24.33;;;18.60;;
75499;SDS011;64076;51.466;7.260;2024-03-08T02:32:25;25.80;;;19.60;;
75499;SDS011;64076;51.466;7.260;2024-03-08T02:34:51;24.63;;;19.73;;
75499;SDS011;64076;51.466;7.260;2024-03-08T02:37:21;24.77;;;19.40;;
75499;SDS011;64076;51.466;7.260;2024-03-08T02:39:47;24.63;;;19.43;;
75499;SDS011;64076;51.466;7.260;2024-03-08T02:42:12;24.90;;;18.93;;
75499;SDS011;64076;51.466;7.260;2024-03-08T02:44:41;23.70;;;18.38;;
75499;SDS011;64076;51.466;7.260;2024-03-08T02:47:08;22.77;;;18.60;;
75499;SDS011;64076;51.466;7.260;2024-03-08T02:49:34;24.20;;;19.00;;
75499;SDS011;64076;51.466;7.260;2024-03-08T02:52:02;24.77;;;18.92;;
75499;SDS011;64076;51.466;7.260;2024-03-08T02:54:27;24.88;;;18.35;;
75499;SDS011;64076;51.466;7.260;2024-03-08T02:56:53;24.87;;;19.13;;
75499;SDS011;64076;51.466;7.260;2024-03-08T02:59:18;23.73;;;18.73;;
75499;SDS011;64076;51.466;7.260;2024-03-08T03:01:44;22.33;;;17.63;;
75499;SDS011;64076;51.466;7.260;2024-03-08T03:04:09;25.40;;;19.33;;
75499;SDS011;64076;51.466;7.260;2024-03-08T03:06:35;22.57;;;17.50;;
75499;SDS011;64076;51.466;7.260;2024-03-08T03:09:01;22.80;;;18.40;;
75499;SDS011;64076;51.466;7.260;2024-03-08T03:11:27;24.43;;;19.70;;
75499;SDS011;64076;51.466;7.260;2024-03-08T03:13:52;24.95;;;19.67;;
75499;SDS011;64076;51.466;7.260;2024-03-08T03:16:19;24.58;;;18.90;;
75499;SDS011;64076;51.466;7.260;2024-03-08T03:18:45;23.37;;;18.73;;
75499;SDS011;64076;51.466;7.260;2024-03-08T03:21:11;23.25;;;18.77;;
75499;SDS011;64076;51.466;7.260;2024-03-08T03:23:38;25.75;;;20.05;;
75499;SDS011;64076;51.466;7.260;2024-03-08T03:26:07;23.33;;;18.48;;
75499;SDS011;64076;51.466;7.260;2024-03-08T03:28:33;25.27;;;18.50;;
75499;SDS011;64076;51.466;7.260;2024-03-08T03:30:59;24.30;;;19.03;;
75499;SDS011;64076;51.466;7.260;2024-03-08T03:33:25;25.87;;;18.80;;
75499;SDS011;64076;51.466;7.260;2024-03-08T03:35:50;24.35;;;18.80;;
75499;SDS011;64076;51.466;7.260;2024-03-08T03:38:20;25.48;;;19.08;;
75499;SDS011;64076;51.466;7.260;2024-03-08T03:40:48;24.90;;;18.80;;
75499;SDS011;64076;51.466;7.260;2024-03-08T03:43:17;23.77;;;18.20;;
75499;SDS011;64076;51.466;7.260;2024-03-08T03:45:42;25.63;;;19.23;;
75499;SDS011;64076;51.466;7.260;2024-03-08T03:48:08;22.93;;;18.27;;
75499;SDS011;64076;51.466;7.260;2024-03-08T03:50:34;25.63;;;19.48;;
75499;SDS011;64076;51.466;7.260;2024-03-08T03:53:00;24.88;;;18.63;;
75499;SDS011;64076;51.466;7.260;2024-03-08T03:55:27;25.10;;;19.30;;
75499;SDS011;64076;51.466;7.260;2024-03-08T03:57:53;26.40;;;19.73;;
75499;SDS011;64076;51.466;7.260;2024-03-08T04:00:19;25.30;;;19.08;;
75499;SDS011;64076;51.466;7.260;2024-03-08T04:02:45;25.83;;;19.90;;
75499;SDS011;64076;51.466;7.260;2024-03-08T04:05:12;25.40;;;19.45;;
75499;SDS011;64076;51.466;7.260;2024-03-08T04:07:38;23.05;;;18.45;;
75499;SDS011;64076;51.466;7.260;2024-03-08T04:10:04;26.08;;;19.60;;
75499;SDS011;64076;51.466;7.260;2024-03-08T04:12:34;27.13;;;20.30;;
75499;SDS011;64076;51.466;7.260;2024-03-08T04:15:00;26.27;;;19.77;;
75499;SDS011;64076;51.466;7.260;2024-03-08T04:17:25;24.52;;;18.67;;
75499;SDS011;64076;51.466;7.260;2024-03-08T04:19:51;25.67;;;19.47;;
75499;SDS011;64076;51.466;7.260;2024-03-08T04:22:17;24.77;;;19.05;;
75499;SDS011;64076;51.466;7.260;2024-03-08T04:24:46;25.45;;;19.45;;
75499;SDS011;64076;51.466;7.260;2024-03-08T04:27:12;24.40;;;19.30;;
75499;SDS011;64076;51.466;7.260;2024-03-08T04:29:38;24.67;;;18.83;;
75499;SDS011;64076;51.466;7.260;2024-03-08T04:32:04;26.27;;;18.90;;
75499;SDS011;64076;51.466;7.260;2024-03-08T04:34:31;25.63;;;19.30;;
75499;SDS011;64076;51.466;7.260;2024-03-08T04:36:57;26.48;;;19.75;;
75499;SDS011;64076;51.466;7.260;2024-03-08T04:39:23;24.52;;;17.30;;
75499;SDS011;64076;51.466;7.260;2024-03-08T04:41:49;25.97;;;19.60;;
75499;SDS011;64076;51.466;7.260;2024-03-08T04:44:15;24.70;;;19.67;;
75499;SDS011;64076;51.466;7.260;2024-03-08T04:46:42;22.65;;;18.02;;
75499;SDS011;64076;51.466;7.260;2024-03-08T04:49:08;26.97;;;19.50;;
75499;SDS011;64076;51.466;7.260;2024-03-08T04:51:33;24.15;;;19.10;;
75499;SDS011;64076;51.466;7.260;2024-03-08T04:53:59;23.70;;;18.93;;
75499;SDS011;64076;51.466;7.260;2024-03-08T04:56:24;25.45;;;18.67;;
75499;SDS011;64076;51.466;7.260;2024-03-08T04:58:50;25.00;;;19.47;;
75499;SDS011;64076;51.466;7.260;2024-03-08T05:01:16;25.00;;;18.42;;
75499;SDS011;64076;51.466;7.260;2024-03-08T05:03:42;25.83;;;19.50;;
75499;SDS011;64076;51.466;7.260;2024-03-08T05:06:07;23.45;;;18.30;;
75499;SDS011;64076;51.466;7.260;2024-03-08T05:08:33;23.97;;;18.60;;
75499;SDS011;64076;51.466;7.260;2024-03-08T05:10:59;24.77;;;19.05;;
75499;SDS011;64076;51.466;7.260;2024-03-08T05:13:28;25.13;;;18.38;;
75499;SDS011;64076;51.466;7.260;2024-03-08T05:15:55;24.58;;;18.40;;
75499;SDS011;64076;51.466;7.260;2024-03-08T05:18:23;24.55;;;19.02;;
75499;SDS011;64076;51.466;7.260;2024-03-08T05:20:49;25.70;;;19.70;;
75499;SDS011;64076;51.466;7.260;2024-03-08T05:23:16;24.67;;;19.08;;
75499;SDS011;64076;51.466;7.260;2024-03-08T05:25:41;27.57;;;20.03;;
75499;SDS011;64076;51.466;7.260;2024-03-08T05:28:07;27.70;;;20.55;;
75499;SDS011;64076;51.466;7.260;2024-03-08T05:30:33;27.20;;;19.80;;
75499;SDS011;64076;51.466;7.260;2024-03-08T05:33:01;24.73;;;19.13;;
75499;SDS011;64076;51.466;7.260;2024-03-08T05:35:26;27.05;;;19.75;;
75499;SDS011;64076;51.466;7.260;2024-03-08T05:37:52;25.70;;;19.67;;
75499;SDS011;64076;51.466;7.260;2024-03-08T05:40:17;25.37;;;18.90;;
75499;SDS011;64076;51.466;7.260;2024-03-08T05:42:44;26.10;;;19.83;;
75499;SDS011;64076;51.466;7.260;2024-03-08T05:45:09;27.67;;;21.17;;
75499;SDS011;64076;51.466;7.260;2024-03-08T05:47:36;27.37;;;20.30;;
75499;SDS011;64076;51.466;7.260;2024-03-08T05:50:01;27.50;;;20.15;;
75499;SDS011;64076;51.466;7.260;2024-03-08T05:52:27;26.63;;;20.53;;
75499;SDS011;64076;51.466;7.260;2024-03-08T05:54:52;26.80;;;20.58;;
75499;SDS011;64076;51.466;7.260;2024-03-08T05:57:18;28.03;;;21.20;;
75499;SDS011;64076;51.466;7.260;2024-03-08T05:59:44;27.83;;;20.30;;
75499;SDS011;64076;51.466;7.260;2024-03-08T06:02:09;28.17;;;20.63;;
75499;SDS011;64076;51.466;7.260;2024-03-08T06:04:35;28.63;;;20.17;;
75499;SDS011;64076;51.466;7.260;2024-03-08T06:07:00;29.38;;;20.77;;
75499;SDS011;64076;51.466;7.260;2024-03-08T06:09:28;27.42;;;20.65;;
75499;SDS011;64076;51.466;7.260;2024-03-08T06:11:53;28.80;;;20.10;;
75499;SDS011;64076;51.466;7.260;2024-03-08T06:14:19;27.70;;;20.25;;
75499;SDS011;64076;51.466;7.260;2024-03-08T06:16:45;27.13;;;20.53;;
75499;SDS011;64076;51.466;7.260;2024-03-08T06:19:11;26.73;;;19.98;;
75499;SDS011;64076;51.466;7.260;2024-03-08T06:21:37;28.98;;;21.60;;
75499;SDS011;64076;51.466;7.260;2024-03-08T06:24:03;24.57;;;18.67;;
75499;SDS011;64076;51.466;7.260;2024-03-08T06:26:29;28.10;;;20.57;;
75499;SDS011;64076;51.466;7.260;2024-03-08T06:28:55;27.55;;;19.25;;
75499;SDS011;64076;51.466;7.260;2024-03-08T06:31:21;23.20;;;17.80;;
75499;SDS011;64076;51.466;7.260;2024-03-08T06:33:46;24.02;;;17.38;;
75499;SDS011;64076;51.466;7.260;2024-03-08T06:36:17;21.35;;;16.65;;
75499;SDS011;64076;51.466;7.260;2024-03-08T06:38:44;19.67;;;13.70;;
75499;SDS011;64076;51.466;7.260;2024-03-08T06:41:11;18.67;;;13.95;;
75499;SDS011;64076;51.466;7.260;2024-03-08T06:43:43;19.00;;;13.98;;
75499;SDS011;64076;51.466;7.260;2024-03-08T06:46:14;17.63;;;13.70;;
75499;SDS011;64076;51.466;7.260;2024-03-08T06:48:40;18.05;;;13.88;;
75499;SDS011;64076;51.466;7.260;2024-03-08T06:51:05;15.63;;;12.63;;
75499;SDS011;64076;51.466;7.260;2024-03-08T06:53:31;15.95;;;13.38;;
75499;SDS011;64076;51.466;7.260;2024-03-08T06:55:57;15.10;;;12.50;;
75499;SDS011;64076;51.466;7.260;2024-03-08T06:58:23;14.95;;;11.75;;
75499;SDS011;64076;51.466;7.260;2024-03-08T07:00:49;14.07;;;11.27;;
75499;SDS011;64076;51.466;7.260;2024-03-08T07:03:18;14.55;;;11.73;;
75499;SDS011;64076;51.466;7.260;2024-03-08T07:05:44;13.50;;;11.20;;
75499;SDS011;64076;51.466;7.260;2024-03-08T07:08:09;16.27;;;11.50;;
75499;SDS011;64076;51.466;7.260;2024-03-08T07:10:35;14.23;;;11.43;;
75499;SDS011;64076;51.466;7.260;2024-03-08T07:13:02;14.57;;;11.10;;
75499;SDS011;64076;51.466;7.260;2024-03-08T07:15:28;13.82;;;10.98;;
75499;SDS011;64076;51.466;7.260;2024-03-08T07:17:54;15.63;;;12.13;;
75499;SDS011;64076;51.466;7.260;2024-03-08T07:20:20;12.98;;;11.05;;
75499;SDS011;64076;51.466;7.260;2024-03-08T07:22:46;13.10;;;10.20;;
75499;SDS011;64076;51.466;7.260;2024-03-08T07:25:13;11.05;;;9.70;;
75499;SDS011;64076;51.466;7.260;2024-03-08T07:27:49;12.07;;;8.80;;
75499;SDS011;64076;51.466;7.260;2024-03-08T07:30:15;12.47;;;7.70;;
75499;SDS011;64076;51.466;7.260;2024-03-08T07:32:59;7.95;;;6.35;;
75499;SDS011;64076;51.466;7.260;2024-03-08T07:35:27;8.77;;;6.57;;
75499;SDS011;64076;51.466;7.260;2024-03-08T07:37:53;11.50;;;5.97;;
75499;SDS011;64076;51.466;7.260;2024-03-08T07:40:22;8.15;;;6.13;;
75499;SDS011;64076;51.466;7.260;2024-03-08T07:42:48;8.20;;;6.10;;
75499;SDS011;64076;51.466;7.260;2024-03-08T07:45:14;7.38;;;5.80;;
75499;SDS011;64076;51.466;7.260;2024-03-08T07:47:41;9.38;;;6.03;;
75499;SDS011;64076;51.466;7.260;2024-03-08T07:50:07;6.97;;;5.77;;
75499;SDS011;64076;51.466;7.260;2024-03-08T07:52:35;9.65;;;5.63;;
75499;SDS011;64076;51.466;7.260;2024-03-08T07:55:01;11.02;;;6.20;;
75499;SDS011;64076;51.466;7.260;2024-03-08T07:57:28;7.72;;;5.93;;
75499;SDS011;64076;51.466;7.260;2024-03-08T07:59:54;9.93;;;6.50;;
75499;SDS011;64076;51.466;7.260;2024-03-08T08:02:20;10.20;;;7.20;;
75499;SDS011;64076;51.466;7.260;2024-03-08T08:04:46;10.40;;;6.53;;
75499;SDS011;64076;51.466;7.260;2024-03-08T08:07:11;9.95;;;7.20;;
75499;SDS011;64076;51.466;7.260;2024-03-08T08:09:37;9.33;;;7.40;;
75499;SDS011;64076;51.466;7.260;2024-03-08T08:12:02;10.20;;;7.50;;
75499;SDS011;64076;51.466;7.260;2024-03-08T08:14:28;8.30;;;7.32;;
75499;SDS011;64076;51.466;7.260;2024-03-08T08:16:54;12.25;;;7.57;;
75499;SDS011;64076;51.466;7.260;2024-03-08T08:19:22;9.37;;;7.47;;
75499;SDS011;64076;51.466;7.260;2024-03-08T08:21:47;8.38;;;7.07;;
75499;SDS011;64076;51.466;7.260;2024-03-08T08:24:13;8.75;;;7.10;;
75499;SDS011;64076;51.466;7.260;2024-03-08T08:26:39;8.73;;;7.25;;
75499;SDS011;64076;51.466;7.260;2024-03-08T08:29:05;21.27;;;15.13;;
75499;SDS011;64076;51.466;7.260;2024-03-08T08:31:31;25.10;;;16.05;;
75499;SDS011;64076;51.466;7.260;2024-03-08T08:33:57;22.25;;;17.65;;
75499;SDS011;64076;51.466;7.260;2024-03-08T08:36:26;19.07;;;14.63;;
75499;SDS011;64076;51.466;7.260;2024-03-08T08:38:51;22.17;;;17.15;;
75499;SDS011;64076;51.466;7.260;2024-03-08T08:41:21;25.17;;;14.90;;
75499;SDS011;64076;51.466;7.260;2024-03-08T08:43:47;15.43;;;11.57;;
75499;SDS011;64076;51.466;7.260;2024-03-08T08:46:16;15.63;;;10.40;;
75499;SDS011;64076;51.466;7.260;2024-03-08T08:48:42;17.75;;;9.70;;
75499;SDS011;64076;51.466;7.260;2024-03-08T08:51:10;11.38;;;9.07;;
75499;SDS011;64076;51.466;7.260;2024-03-08T08:53:38;12.90;;;9.15;;
75499;SDS011;64076;51.466;7.260;2024-03-08T08:56:11;10.77;;;8.70;;
75499;SDS011;64076;51.466;7.260;2024-03-08T08:58:41;13.75;;;8.50;;
75499;SDS011;64076;51.466;7.260;2024-03-08T09:01:08;11.60;;;7.95;;
75499;SDS011;64076;51.466;7.260;2024-03-08T09:03:35;10.95;;;8.15;;
75499;SDS011;64076;51.466;7.260;2024-03-08T09:06:02;11.77;;;8.10;;
75499;SDS011;64076;51.466;7.260;2024-03-08T09:08:30;9.50;;;8.17;;
75499;SDS011;64076;51.466;7.260;2024-03-08T09:10:56;9.52;;;7.90;;
75499;SDS011;64076;51.466;7.260;2024-03-08T09:13:21;10.00;;;7.40;;
75499;SDS011;64076;51.466;7.260;2024-03-08T09:15:48;9.38;;;7.47;;
75499;SDS011;64076;51.466;7.260;2024-03-08T09:18:13;9.87;;;7.53;;
75499;SDS011;64076;51.466;7.260;2024-03-08T09:20:39;10.77;;;7.40;;
75499;SDS011;64076;51.466;7.260;2024-03-08T09:23:06;11.77;;;7.90;;
75499;SDS011;64076;51.466;7.260;2024-03-08T09:25:33;9.15;;;7.95;;
75499;SDS011;64076;51.466;7.260;2024-03-08T09:27:59;9.80;;;7.95;;
75499;SDS011;64076;51.466;7.260;2024-03-08T09:30:24;10.67;;;8.47;;
75499;SDS011;64076;51.466;7.260;2024-03-08T09:32:50;10.88;;;8.18;;
75499;SDS011;64076;51.466;7.260;2024-03-08T09:35:16;10.90;;;8.43;;
75499;SDS011;64076;51.466;7.260;2024-03-08T09:37:42;9.85;;;8.30;;
75499;SDS011;64076;51.466;7.260;2024-03-08T09:40:08;11.17;;;7.97;;
75499;SDS011;64076;51.466;7.260;2024-03-08T09:42:40;11.32;;;9.27;;
75499;SDS011;64076;51.466;7.260;2024-03-08T09:45:08;13.23;;;10.43;;
75499;SDS011;64076;51.466;7.260;2024-03-08T09:47:43;10.80;;;9.20;;
75499;SDS011;64076;51.466;7.260;2024-03-08T09:50:10;12.82;;;10.38;;
75499;SDS011;64076;51.466;7.260;2024-03-08T09:52:41;12.00;;;10.10;;
75499;SDS011;64076;51.466;7.260;2024-03-08T09:55:08;13.55;;;10.45;;
75499;SDS011;64076;51.466;7.260;2024-03-08T09:57:36;12.30;;;9.63;;
75499;SDS011;64076;51.466;7.260;2024-03-08T10:00:03;13.03;;;10.50;;
75499;SDS011;64076;51.466;7.260;2024-03-08T10:02:50;14.07;;;9.93;;
75499;SDS011;64076;51.466;7.260;2024-03-08T10:05:18;12.70;;;10.55;;
75499;SDS011;64076;51.466;7.260;2024-03-08T10:07:44;13.40;;;10.87;;
75499;SDS011;64076;51.466;7.260;2024-03-08T10:10:12;12.27;;;9.65;;
75499;SDS011;64076;51.466;7.260;2024-03-08T10:12:39;12.15;;;10.25;;
75499;SDS011;64076;51.466;7.260;2024-03-08T10:15:08;13.40;;;10.18;;
75499;SDS011;64076;51.466;7.260;2024-03-08T10:17:37;12.10;;;9.97;;
75499;SDS011;64076;51.466;7.260;2024-03-08T10:20:08;12.27;;;10.40;;
75499;SDS011;64076;51.466;7.260;2024-03-08T10:22:42;12.18;;;10.20;;
75499;SDS011;64076;51.466;7.260;2024-03-08T10:25:10;12.15;;;10.50;;
75499;SDS011;64076;51.466;7.260;2024-03-08T10:27:36;12.45;;;9.75;;
75499;SDS011;64076;51.466;7.260;2024-03-08T10:30:04;11.13;;;9.90;;
75499;SDS011;64076;51.466;7.260;2024-03-08T10:32:31;12.10;;;9.88;;
75499;SDS011;64076;51.466;7.260;2024-03-08T10:35:06;11.45;;;8.82;;
75499;SDS011;64076;51.466;7.260;2024-03-08T10:37:33;12.05;;;9.18;;
75499;SDS011;64076;51.466;7.260;2024-03-08T10:40:04;12.68;;;10.20;;
75499;SDS011;64076;51.466;7.260;2024-03-08T10:42:40;10.90;;;9.60;;
75499;SDS011;64076;51.466;7.260;2024-03-08T10:48:10;13.38;;;11.15;;
75499;SDS011;64076;51.466;7.260;2024-03-08T10:50:40;11.98;;;10.15;;
75499;SDS011;64076;51.466;7.260;2024-03-08T10:53:07;12.35;;;10.13;;
75499;SDS011;64076;51.466;7.260;2024-03-08T10:55:36;11.07;;;9.53;;
75499;SDS011;64076;51.466;7.260;2024-03-08T10:58:03;11.50;;;9.82;;
75499;SDS011;64076;51.466;7.260;2024-03-08T11:00:29;12.10;;;9.75;;
75499;SDS011;64076;51.466;7.260;2024-03-08T11:02:56;11.02;;;9.60;;
75499;SDS011;64076;51.466;7.260;2024-03-08T11:05:38;10.33;;;8.83;;
75499;SDS011;64076;51.466;7.260;2024-03-08T11:08:20;10.20;;;9.00;;
75499;SDS011;64076;51.466;7.260;2024-03-08T11:10:54;10.10;;;8.70;;
75499;SDS011;64076;51.466;7.260;2024-03-08T11:16:00;10.67;;;8.93;;
75499;SDS011;64076;51.466;7.260;2024-03-08T11:18:26;9.82;;;8.68;;
75499;SDS011;64076;51.466;7.260;2024-03-08T11:20:54;9.55;;;8.40;;
75499;SDS011;64076;51.466;7.260;2024-03-08T11:23:22;9.27;;;8.23;;
75499;SDS011;64076;51.466;7.260;2024-03-08T11:25:48;9.57;;;7.75;;
75499;SDS011;64076;51.466;7.260;2024-03-08T11:28:20;10.02;;;8.40;;
75499;SDS011;64076;51.466;7.260;2024-03-08T11:33:24;10.25;;;8.45;;
75499;SDS011;64076;51.466;7.260;2024-03-08T11:35:52;12.07;;;7.53;;
75499;SDS011;64076;51.466;7.260;2024-03-08T11:38:22;12.40;;;7.50;;
75499;SDS011;64076;51.466;7.260;2024-03-08T11:40:48;13.27;;;7.57;;
75499;SDS011;64076;51.466;7.260;2024-03-08T11:43:15;9.93;;;7.43;;
75499;SDS011;64076;51.466;7.260;2024-03-08T11:45:41;10.15;;;7.32;;
75499;SDS011;64076;51.466;7.260;2024-03-08T11:48:07;11.68;;;7.45;;
75499;SDS011;64076;51.466;7.260;2024-03-08T11:50:32;10.03;;;7.60;;
75499;SDS011;64076;51.466;7.260;2024-03-08T11:53:04;14.10;;;7.75;;
75499;SDS011;64076;51.466;7.260;2024-03-08T11:55:31;10.10;;;7.27;;
75499;SDS011;64076;51.466;7.260;2024-03-08T11:58:01;13.88;;;7.65;;
75499;SDS011;64076;51.466;7.260;2024-03-08T12:00:27;11.00;;;7.90;;
75499;SDS011;64076;51.466;7.260;2024-03-08T12:03:03;12.65;;;7.65;;
75499;SDS011;64076;51.466;7.260;2024-03-08T12:05:29;10.48;;;7.75;;
75499;SDS011;64076;51.466;7.260;2024-03-08T12:08:00;11.37;;;7.43;;
75499;SDS011;64076;51.466;7.260;2024-03-08T12:10:27;10.23;;;7.10;;
75499;SDS011;64076;51.466;7.260;2024-03-08T12:12:53;9.25;;;7.40;;
75499;SDS011;64076;51.466;7.260;2024-03-08T12:15:21;11.77;;;7.90;;
75499;SDS011;64076;51.466;7.260;2024-03-08T12:17:49;9.95;;;7.75;;
75499;SDS011;64076;51.466;7.260;2024-03-08T12:20:16;9.17;;;7.17;;
75499;SDS011;64076;51.466;7.260;2024-03-08T12:22:44;9.35;;;7.07;;
75499;SDS011;64076;51.466;7.260;2024-03-08T12:25:13;8.10;;;6.38;;
75499;SDS011;64076;51.466;7.260;2024-03-08T12:27:40;9.10;;;6.30;;
75499;SDS011;64076;51.466;7.260;2024-03-08T12:30:44;7.88;;;6.15;;
75499;SDS011;64076;51.466;7.260;2024-03-08T12:33:01;8.27;;;5.47;;
75499;SDS011;64076;51.466;7.260;2024-03-08T12:35:27;7.93;;;5.47;;
75499;SDS011;64076;51.466;7.260;2024-03-08T12:37:55;7.20;;;5.53;;
75499;SDS011;64076;51.466;7.260;2024-03-08T12:40:27;6.60;;;5.30;;
75499;SDS011;64076;51.466;7.260;2024-03-08T12:42:56;7.00;;;5.20;;
75499;SDS011;64076;51.466;7.260;2024-03-08T12:45:22;6.95;;;5.32;;
75499;SDS011;64076;51.466;7.260;2024-03-08T12:47:49;9.20;;;5.95;;
75499;SDS011;64076;51.466;7.260;2024-03-08T12:50:16;7.88;;;5.13;;
75499;SDS011;64076;51.466;7.260;2024-03-08T12:52:42;6.13;;;5.10;;
75499;SDS011;64076;51.466;7.260;2024-03-08T12:55:07;6.18;;;5.28;;
75499;SDS011;64076;51.466;7.260;2024-03-08T12:57:33;5.60;;;4.80;;
75499;SDS011;64076;51.466;7.260;2024-03-08T13:00:03;6.30;;;5.28;;
75499;SDS011;64076;51.466;7.260;2024-03-08T13:02:30;6.85;;;5.28;;
75499;SDS011;64076;51.466;7.260;2024-03-08T13:04:58;6.32;;;5.15;;
75499;SDS011;64076;51.466;7.260;2024-03-08T13:07:24;7.20;;;5.00;;
75499;SDS011;64076;51.466;7.260;2024-03-08T13:09:53;5.90;;;5.03;;
75499;SDS011;64076;51.466;7.260;2024-03-08T13:12:19;6.55;;;5.35;;
75499;SDS011;64076;51.466;7.260;2024-03-08T13:14:49;5.73;;;4.93;;
75499;SDS011;64076;51.466;7.260;2024-03-08T13:17:15;6.30;;;4.97;;
75499;SDS011;64076;51.466;7.260;2024-03-08T13:19:41;6.32;;;4.95;;
75499;SDS011;64076;51.466;7.260;2024-03-08T13:22:09;6.80;;;6.07;;
75499;SDS011;64076;51.466;7.260;2024-03-08T13:24:41;5.67;;;4.80;;
75499;SDS011;64076;51.466;7.260;2024-03-08T13:27:07;6.18;;;5.25;;
75499;SDS011;64076;51.466;7.260;2024-03-08T13:29:44;6.85;;;5.30;;
75499;SDS011;64076;51.466;7.260;2024-03-08T13:32:14;5.97;;;4.80;;
75499;SDS011;64076;51.466;7.260;2024-03-08T13:34:40;6.10;;;4.88;;
75499;SDS011;64076;51.466;7.260;2024-03-08T13:37:07;6.23;;;5.20;;
75499;SDS011;64076;51.466;7.260;2024-03-08T13:39:34;6.72;;;5.18;;
75499;SDS011;64076;51.466;7.260;2024-03-08T13:42:12;6.57;;;5.65;;
75499;SDS011;64076;51.466;7.260;2024-03-08T13:44:46;6.78;;;5.70;;
75499;SDS011;64076;51.466;7.260;2024-03-08T13:47:13;6.07;;;4.88;;
75499;SDS011;64076;51.466;7.260;2024-03-08T13:49:39;6.80;;;5.83;;
75499;SDS011;64076;51.466;7.260;2024-03-08T13:52:05;6.63;;;5.43;;
75499;SDS011;64076;51.466;7.260;2024-03-08T13:54:33;10.63;;;5.57;;
75499;SDS011;64076;51.466;7.260;2024-03-08T13:57:00;7.18;;;5.70;;
75499;SDS011;64076;51.466;7.260;2024-03-08T13:59:28;6.77;;;5.40;;
75499;SDS011;64076;51.466;7.260;2024-03-08T14:01:55;6.25;;;4.90;;
75499;SDS011;64076;51.466;7.260;2024-03-08T14:04:22;8.25;;;5.38;;
75499;SDS011;64076;51.466;7.260;2024-03-08T14:06:47;6.47;;;5.20;;
75499;SDS011;64076;51.466;7.260;2024-03-08T14:09:14;5.85;;;5.25;;
75499;SDS011;64076;51.466;7.260;2024-03-08T14:11:44;6.88;;;5.32;;
75499;SDS011;64076;51.466;7.260;2024-03-08T14:14:10;8.32;;;5.38;;
75499;SDS011;64076;51.466;7.260;2024-03-08T14:16:39;8.73;;;5.93;;
75499;SDS011;64076;51.466;7.260;2024-03-08T14:19:04;11.03;;;6.30;;
75499;SDS011;64076;51.466;7.260;2024-03-08T14:21:30;8.60;;;6.00;;
75499;SDS011;64076;51.466;7.260;2024-03-08T14:23:56;10.23;;;5.67;;
75499;SDS011;64076;51.466;7.260;2024-03-08T14:26:22;9.52;;;5.47;;
75499;SDS011;64076;51.466;7.260;2024-03-08T14:28:48;9.07;;;6.10;;
75499;SDS011;64076;51.466;7.260;2024-03-08T14:31:16;9.93;;;6.25;;
75499;SDS011;64076;51.466;7.260;2024-03-08T14:33:44;10.02;;;6.40;;
75499;SDS011;64076;51.466;7.260;2024-03-08T14:36:13;11.60;;;6.00;;
75499;SDS011;64076;51.466;7.260;2024-03-08T14:38:41;8.27;;;5.97;;
75499;SDS011;64076;51.466;7.260;2024-03-08T14:41:07;8.50;;;6.18;;